Nahunta, Georgia
Current Conditions -  °F | °C
As of 10:35 AM on Thursday 30 Oct 2014 (Local Time) from KJES Reporting Station
Broken Clouds Broken Clouds  
Wind Chill: 66°   Ceiling: 9000
Heat Index: 66°   Visibility: 10mi
Dew Point: 59°   Wind: 5mph
Humidity: 78%   Direction: 340°NNW
Pressure: 30.01"   Gusts: NA
Location:  31.2°N, 81.98°W
Report Text: KJES 301435Z AUTO 34004KT 10SM BKN090 19/15 A3001 RMK AO2
Loading
Personal Weather Stations






























Interactive Weather Map
Tropical Storm Tracking
New forecast layout! Learn more

10-Day Weather Forecast

Advertisements
Track Severe Weather on mobile